Terminal Aerodrome Forecast
Issued by NWS Mt. Holly, NJ

Home | Current Version | Previous Version | Text Only | Print | Product List | Glossary On
Versions: 1 2 3 4 5 6 7 8 9 10 11 12 13 14 15 16 17 18 19 20 21 22 23 24
000
FTAK31 PANC 260536
TAFABE
TAF
PABE 260536Z 2606/2706 02013KT P6SM SCT200
     FM261200 02014G23KT P6SM BKN200
     FM262000 02015G25KT P6SM SCT120 OVC200=

USA.gov is the U.S. government's official web portal to all federal, state and local government web resources and services.